Time;durP1;ratioP1;P1;durP2;ratioP2;P2;SDS_P1;SDS_P2;PMS_P1;PMS_P2;Temp;Humidity;BMP_temperature;BMP_pressure;BME280_temperature;BME280_humidity;BME280_pressure;Samples;Min_cycle;Max_cycle;Signal;HPM_P1;HPM_P2
2022/09/24 06:11:09;;;;;;;10.75;6.80;;;11.90;99.90;;;;;;10483969;27;20127;-74
2022/09/24 06:16:12;;;;;;;10.40;6.97;;;12.00;99.90;;;;;;10431893;28;20052;-75
2022/09/24 06:21:16;;;;;;;10.48;6.82;;;12.30;99.90;;;;;;10467585;28;20068;-75
2022/09/24 06:26:20;;;;;;;10.75;7.00;;;12.50;99.90;;;;;;10466484;28;20051;-74
2022/09/24 06:31:22;;;;;;;9.77;7.45;;;12.70;99.90;;;;;;10457112;28;20049;-75
2022/09/24 06:36:24;;;;;;;12.88;7.35;;;12.80;99.90;;;;;;10484436;28;20490;-75
2022/09/24 06:41:28;;;;;;;9.32;6.90;;;12.90;99.90;;;;;;10472157;28;20045;-74
2022/09/24 06:46:30;;;;;;;10.70;6.45;;;13.00;99.90;;;;;;10440892;28;20056;-75
2022/09/24 06:51:32;;;;;;;10.85;6.80;;;13.10;99.90;;;;;;10453341;28;20037;-74
2022/09/24 06:56:35;;;;;;;11.00;7.63;;;13.10;99.90;;;;;;10457073;28;20063;-75
2022/09/24 07:01:38;;;;;;;9.65;7.03;;;13.20;99.90;;;;;;10468064;28;20046;-74
2022/09/24 07:12:04;;;;;;;9.20;7.10;;;13.30;99.90;;;;;;10469807;28;20049;-76
2022/09/24 07:17:06;;;;;;;11.00;7.05;;;13.40;99.90;;;;;;10440719;28;20045;-74
2022/09/24 07:22:08;;;;;;;11.65;7.90;;;13.50;99.90;;;;;;10439982;28;20132;-75
2022/09/24 07:27:12;;;;;;;10.52;7.93;;;13.50;99.90;;;;;;10443707;28;20057;-75
2022/09/24 07:32:16;;;;;;;11.80;7.78;;;13.50;99.90;;;;;;10449778;28;20053;-75
2022/09/24 07:37:18;;;;;;;10.43;7.80;;;13.60;99.90;;;;;;10417018;28;20111;-75
2022/09/24 07:42:22;;;;;;;10.30;7.47;;;13.60;99.90;;;;;;10438463;28;20484;-74
2022/09/24 07:47:24;;;;;;;12.88;8.25;;;13.60;99.90;;;;;;10452673;28;20045;-76
2022/09/24 07:52:26;;;;;;;11.70;7.65;;;13.70;99.90;;;;;;10419243;28;20041;-75
2022/09/24 07:57:30;;;;;;;11.20;7.90;;;13.70;99.90;;;;;;10426454;28;20041;-74
2022/09/24 08:02:32;;;;;;;10.35;7.57;;;13.80;99.90;;;;;;10444926;28;20056;-74
2022/09/24 08:07:34;;;;;;;11.20;7.65;;;13.90;99.90;;;;;;10433138;28;20060;-75
2022/09/24 08:12:37;;;;;;;11.57;7.90;;;14.00;99.90;;;;;;10441522;28;20045;-75
2022/09/24 08:17:39;;;;;;;10.57;8.38;;;14.10;99.90;;;;;;10439799;28;20045;-75
2022/09/24 08:22:41;;;;;;;10.25;7.32;;;14.20;99.90;;;;;;10417528;28;20056;-74
2022/09/24 08:27:45;;;;;;;10.13;7.55;;;14.10;99.90;;;;;;10419026;28;20052;-75
2022/09/24 08:32:47;;;;;;;9.80;7.25;;;14.10;99.90;;;;;;10444789;28;20433;-74
2022/09/24 08:37:49;;;;;;;12.68;7.30;;;14.30;99.90;;;;;;10445460;28;20384;-77
2022/09/24 08:43:01;;;;;;;9.63;7.40;;;14.20;99.90;;;;;;10438601;28;20051;-78
2022/09/24 08:48:13;;;;;;;10.95;7.70;;;14.30;99.90;;;;;;10454126;28;20060;-76
2022/09/24 08:53:24;;;;;;;14.75;9.10;;;14.30;99.90;;;;;;10435849;28;20069;-74
2022/09/24 08:58:38;;;;;;;10.95;7.85;;;14.30;99.90;;;;;;10416948;28;20060;-75
2022/09/24 09:03:46;;;;;;;11.68;8.15;;;14.40;99.90;;;;;;10446838;28;20045;-77
2022/09/24 09:08:57;;;;;;;10.93;8.20;;;14.50;99.90;;;;;;10446491;28;20053;-76
2022/09/24 09:14:08;;;;;;;11.63;8.43;;;14.50;99.90;;;;;;10433021;28;20314;-78
2022/09/24 09:19:16;;;;;;;12.43;8.48;;;14.60;99.90;;;;;;10403791;28;20639;-78
2022/09/24 09:24:22;;;;;;;10.90;7.88;;;14.70;99.90;;;;;;10453442;28;20033;-76
2022/09/24 09:29:27;;;;;;;9.88;7.45;;;14.80;99.90;;;;;;10419589;28;20072;-79
2022/09/24 09:34:55;;;;;;;12.07;7.32;;;14.90;99.90;;;;;;10448297;28;20052;-77
2022/09/24 09:40:10;;;;;;;11.07;7.55;;;15.00;99.90;;;;;;10457623;28;20127;-76
2022/09/24 09:45:27;;;;;;;10.98;7.50;;;15.10;99.90;;;;;;10457275;28;20049;-78
2022/09/24 09:50:36;;;;;;;11.55;7.25;;;15.00;99.90;;;;;;10457352;28;20052;-77
2022/09/24 09:55:38;;;;;;;9.73;6.72;;;15.10;99.90;;;;;;10457748;28;20056;-79
2022/09/24 10:00:42;;;;;;;9.32;6.70;;;15.10;99.90;;;;;;10457197;28;20049;-75
2022/09/24 10:05:54;;;;;;;10.32;6.47;;;15.10;99.90;;;;;;10457131;28;20159;-76
2022/09/24 10:10:59;;;;;;;10.75;6.70;;;15.20;99.90;;;;;;10424154;28;20057;-76
2022/09/24 10:16:05;;;;;;;9.65;5.90;;;15.20;99.90;;;;;;10415306;28;20501;-75
2022/09/24 10:21:11;;;;;;;7.45;5.30;;;15.20;99.90;;;;;;10415651;28;20041;-76
2022/09/24 10:26:14;;;;;;;7.38;4.38;;;15.30;99.90;;;;;;10415864;28;20056;-75
2022/09/24 10:31:22;;;;;;;6.15;3.83;;;15.40;99.90;;;;;;10444129;28;20045;-76
2022/09/24 10:36:26;;;;;;;6.05;3.75;;;15.50;99.90;;;;;;10374055;28;20417;-75
2022/09/24 10:41:31;;;;;;;5.65;2.92;;;15.70;99.90;;;;;;10448163;28;20064;-76
2022/09/24 10:46:53;;;;;;;4.65;2.85;;;15.50;99.90;;;;;;10445088;28;20054;-73
2022/09/24 10:52:08;;;;;;;5.82;2.95;;;15.60;99.90;;;;;;10425564;28;20057;-77
2022/09/24 10:57:25;;;;;;;4.25;2.70;;;15.70;99.90;;;;;;10404655;28;20403;-77
2022/09/24 11:03:16;;;;;;;4.85;2.45;;;15.90;99.90;;;;;;10414962;28;20454;-75
2022/09/24 11:08:36;;;;;;;4.78;2.95;;;16.00;99.90;;;;;;10452693;28;20067;-75
2022/09/24 11:13:47;;;;;;;5.18;2.50;;;16.10;99.90;;;;;;10445221;28;20091;-73
2022/09/24 11:18:58;;;;;;;3.78;2.38;;;16.20;99.90;;;;;;10382120;28;20053;-76
2022/09/24 11:24:24;;;;;;;9.00;6.05;;;16.30;99.90;;;;;;10430549;28;20065;-73
2022/09/24 11:29:44;;;;;;;8.57;4.63;;;16.40;99.90;;;;;;10453013;28;20425;-74
2022/09/24 11:35:16;;;;;;;4.68;2.80;;;16.50;99.90;;;;;;10452797;28;20060;-75
2022/09/24 11:40:46;;;;;;;4.88;2.65;;;16.50;99.90;;;;;;10436406;28;20080;-77
2022/09/24 11:45:59;;;;;;;6.00;2.75;;;16.60;99.90;;;;;;10375709;28;20054;-73
2022/09/24 11:51:19;;;;;;;4.47;2.50;;;16.60;99.90;;;;;;10385008;28;20057;-73
2022/09/24 11:56:28;;;;;;;4.63;2.72;;;16.90;99.90;;;;;;10446285;28;20056;-74
2022/09/24 12:01:35;;;;;;;4.75;2.63;;;17.00;99.90;;;;;;10459183;28;20053;-75
2022/09/24 12:06:51;;;;;;;4.20;2.42;;;17.00;99.90;;;;;;10454682;28;20052;-76
2022/09/24 12:11:58;;;;;;;4.10;2.60;;;17.00;99.90;;;;;;10414093;28;20053;-74
2022/09/24 12:17:07;;;;;;;5.57;2.50;;;17.10;99.90;;;;;;10435296;28;20041;-74
2022/09/24 12:22:10;;;;;;;;;;;17.20;99.90;;;;;;10416746;28;20499;-74
2022/09/24 12:27:16;;;;;;;4.97;2.60;;;17.30;99.90;;;;;;10426739;28;19928;-75
2022/09/24 12:37:49;;;;;;;5.53;2.75;;;17.30;99.90;;;;;;10412392;28;20057;-75
2022/09/24 12:42:57;;;;;;;5.95;2.78;;;17.30;99.90;;;;;;10412286;28;20046;-76
2022/09/24 12:48:02;;;;;;;6.10;2.67;;;17.30;99.90;;;;;;10427017;28;20059;-76
2022/09/24 12:53:23;;;;;;;4.40;2.92;;;17.30;99.90;;;;;;10446566;28;20045;-75
2022/09/24 12:58:35;;;;;;;5.18;2.83;;;17.20;99.90;;;;;;10444243;28;20060;-73
2022/09/24 13:03:39;;;;;;;4.13;2.80;;;17.10;99.90;;;;;;10450765;28;20565;-73
2022/09/24 13:08:43;;;;;;;6.65;4.03;;;17.00;99.90;;;;;;10429710;28;20062;-73
2022/09/24 13:13:45;;;;;;;7.43;3.97;;;17.00;99.90;;;;;;10424016;28;20049;-73
2022/09/24 13:18:53;;;;;;;6.30;3.75;;;17.00;99.90;;;;;;10428965;28;20049;-73
2022/09/24 13:23:57;;;;;;;5.88;3.30;;;16.90;99.90;;;;;;10450506;28;20053;-76
2022/09/24 13:29:01;;;;;;;6.38;3.78;;;16.80;99.90;;;;;;10448272;28;20052;-73
2022/09/24 13:34:13;;;;;;;5.63;3.47;;;16.80;99.90;;;;;;10449714;28;20053;-74
2022/09/24 13:39:23;;;;;;;7.88;4.38;;;16.80;99.90;;;;;;10441636;28;20041;-74
2022/09/24 13:44:31;;;;;;;5.70;3.58;;;16.90;99.90;;;;;;10450837;28;20056;-74
2022/09/24 13:49:35;;;;;;;4.78;3.10;;;16.80;99.90;;;;;;10441602;28;20061;-74
2022/09/24 13:54:50;;;;;;;7.60;5.18;;;16.80;99.90;;;;;;10442863;28;20053;-74
2022/09/24 14:00:15;;;;;;;6.53;4.30;;;16.80;99.90;;;;;;10442568;28;20051;-75
2022/09/24 14:05:18;;;;;;;5.85;3.72;;;16.80;99.90;;;;;;10417891;28;20048;-74
2022/09/24 14:10:23;;;;;;;5.88;3.97;;;16.80;99.90;;;;;;10443033;28;20091;-75
2022/09/24 14:15:25;;;;;;;6.35;3.88;;;16.80;99.90;;;;;;10470175;28;20055;-75
2022/09/24 14:20:32;;;;;;;7.65;4.05;;;16.80;99.90;;;;;;10472498;28;20047;-76
2022/09/24 14:25:38;;;;;;;6.32;4.30;;;16.70;99.90;;;;;;10433292;28;20049;-75
2022/09/24 14:30:49;;;;;;;6.63;4.25;;;16.70;99.90;;;;;;10446974;28;20049;-75
2022/09/24 14:35:54;;;;;;;6.75;4.72;;;16.60;99.90;;;;;;10415085;28;20059;-75
2022/09/24 14:41:01;;;;;;;6.95;4.30;;;16.60;99.90;;;;;;10448046;28;20057;-74
2022/09/24 14:46:06;;;;;;;6.55;4.05;;;16.60;99.90;;;;;;10418245;28;20068;-75
2022/09/24 14:51:26;;;;;;;5.78;3.83;;;16.60;99.90;;;;;;10416911;28;20081;-75
2022/09/24 14:56:32;;;;;;;18.67;10.48;;;16.40;99.90;;;;;;10418043;28;20126;-75
2022/09/24 15:01:34;;;;;;;6.20;4.10;;;16.40;99.90;;;;;;10427459;28;20501;-75
2022/09/24 15:06:37;;;;;;;7.88;4.38;;;16.50;99.90;;;;;;10419053;28;20049;-73
2022/09/24 15:11:41;;;;;;;7.75;4.32;;;16.50;99.90;;;;;;10425003;28;20061;-75
2022/09/24 15:16:45;;;;;;;6.75;4.32;;;16.40;99.90;;;;;;10416037;28;20056;-73
2022/09/24 15:21:48;;;;;;;7.40;4.97;;;16.50;99.90;;;;;;10428092;28;20076;-73
2022/09/24 15:27:02;;;;;;;7.43;4.70;;;16.40;99.90;;;;;;10439242;28;20056;-75
2022/09/24 15:32:15;;;;;;;6.95;5.00;;;16.30;99.90;;;;;;10408346;28;20057;-76
2022/09/24 15:37:22;;;;;;;7.82;4.82;;;16.40;99.90;;;;;;10428250;28;20080;-74
2022/09/24 15:42:26;;;;;;;6.72;4.38;;;16.40;99.90;;;;;;10444086;28;20376;-75
2022/09/24 15:47:28;;;;;;;8.57;5.80;;;16.40;99.90;;;;;;10442279;28;20048;-76
2022/09/24 15:52:33;;;;;;;8.63;5.00;;;16.50;99.90;;;;;;10450546;28;20053;-74
2022/09/24 15:57:36;;;;;;;6.95;4.75;;;16.40;99.90;;;;;;10412592;28;20802;-74
2022/09/24 16:02:38;;;;;;;7.78;4.97;;;16.50;99.90;;;;;;10427465;28;20134;-75
2022/09/24 16:07:40;;;;;;;9.05;4.95;;;16.50;99.90;;;;;;10400812;28;20534;-74
2022/09/24 16:12:44;;;;;;;7.07;4.57;;;16.50;99.90;;;;;;10414179;28;20073;-75
2022/09/24 16:17:48;;;;;;;7.25;4.72;;;16.50;99.90;;;;;;10426214;28;20090;-73
2022/09/24 16:22:50;;;;;;;8.02;5.28;;;16.40;99.90;;;;;;10433819;28;20507;-76
2022/09/24 16:27:55;;;;;;;7.35;5.70;;;16.40;99.90;;;;;;10437523;28;20052;-76
2022/09/24 16:32:57;;;;;;;8.93;6.00;;;16.30;99.90;;;;;;10418992;28;20045;-75
2022/09/24 16:37:59;;;;;;;8.65;6.28;;;16.30;99.90;;;;;;10434781;28;20050;-73
2022/09/24 16:43:03;;;;;;;9.32;6.43;;;16.20;99.90;;;;;;10441285;28;20049;-75
2022/09/24 16:48:05;;;;;;;10.30;7.20;;;16.20;99.90;;;;;;10443574;28;20068;-76
2022/09/24 16:53:07;;;;;;;11.52;8.43;;;16.20;99.90;;;;;;10431588;28;20053;-74
2022/09/24 16:58:11;;;;;;;8.82;6.70;;;16.10;99.90;;;;;;10372072;28;20472;-75
2022/09/24 17:03:13;;;;;;;9.45;6.38;;;16.10;99.90;;;;;;10429086;28;20063;-75
2022/09/24 17:10:11;;;;;;;10.95;8.48;;;16.10;99.90;;;;;;10445366;28;20056;-73
2022/09/24 17:13:49;;;;;;;12.80;9.63;;;16.10;99.90;;;;;;10441240;28;20084;-75
2022/09/24 17:18:53;;;;;;;17.08;13.52;;;16.10;99.90;;;;;;10438503;28;20059;-76
2022/09/24 17:23:55;;;;;;;18.48;15.55;;;16.00;99.90;;;;;;10452732;28;20076;-74
2022/09/24 17:28:58;;;;;;;12.48;8.75;;;15.80;99.90;;;;;;10387581;28;20061;-75
2022/09/24 17:34:05;;;;;;;11.23;7.65;;;15.90;99.90;;;;;;10394124;28;20044;-76
2022/09/24 17:39:08;;;;;;;10.38;7.57;;;15.80;99.90;;;;;;10445083;28;20053;-77
2022/09/24 17:44:12;;;;;;;11.57;8.10;;;15.80;99.90;;;;;;10419703;28;20049;-78
2022/09/24 17:49:15;;;;;;;8.77;6.47;;;15.70;99.90;;;;;;10418075;28;20067;-76
2022/09/24 17:54:20;;;;;;;8.25;6.38;;;15.70;99.90;;;;;;10433110;28;20057;-78
2022/09/24 17:59:23;;;;;;;6.68;5.00;;;15.60;99.90;;;;;;10417005;28;20061;-76
2022/09/24 18:04:27;;;;;;;7.78;5.05;;;15.60;99.90;;;;;;10419778;28;20042;-77
2022/09/24 18:09:30;;;;;;;7.80;5.28;;;15.60;99.90;;;;;;10401080;28;20057;-73
2022/09/24 18:14:34;;;;;;;7.72;5.70;;;15.50;99.90;;;;;;10412296;28;20049;-75
2022/09/24 18:19:36;;;;;;;9.63;7.18;;;15.50;99.90;;;;;;10411053;28;20049;-76
2022/09/24 18:24:39;;;;;;;11.45;8.77;;;15.50;99.90;;;;;;10406675;28;20061;-76
2022/09/24 18:29:43;;;;;;;13.02;9.63;;;15.50;99.90;;;;;;10444066;28;20493;-74
2022/09/24 18:34:45;;;;;;;10.77;8.43;;;15.40;99.90;;;;;;10411618;28;20046;-73
2022/09/24 18:39:47;;;;;;;9.07;6.97;;;15.30;99.90;;;;;;10368337;28;20054;-74
2022/09/24 18:44:50;;;;;;;10.35;6.72;;;15.30;99.90;;;;;;10383713;28;20127;-76
2022/09/24 18:49:53;;;;;;;13.75;8.30;;;15.30;99.90;;;;;;10448273;28;20041;-76
2022/09/24 18:54:56;;;;;;;11.70;9.30;;;15.30;99.90;;;;;;10407111;28;20051;-77
2022/09/24 18:59:59;;;;;;;11.35;8.15;;;15.20;99.90;;;;;;10408291;28;20054;-76
2022/09/24 19:05:01;;;;;;;11.88;9.25;;;15.30;99.90;;;;;;10426522;28;20550;-74
2022/09/24 19:10:05;;;;;;;13.10;8.95;;;15.20;99.90;;;;;;10448957;28;20061;-74
2022/09/24 19:15:08;;;;;;;11.02;8.55;;;15.10;99.90;;;;;;10428633;28;20045;-77
2022/09/24 19:20:10;;;;;;;15.02;8.82;;;15.10;99.90;;;;;;10413863;28;20482;-76
2022/09/24 19:25:12;;;;;;;10.75;8.35;;;15.00;99.90;;;;;;10457025;28;20414;-74
2022/09/24 19:30:16;;;;;;;10.52;7.55;;;14.80;99.90;;;;;;10450683;28;20049;-72
2022/09/24 19:35:18;;;;;;;12.43;7.70;;;14.90;99.90;;;;;;10454366;28;20091;-75
2022/09/24 19:40:21;;;;;;;10.23;8.07;;;14.90;99.90;;;;;;10450455;28;20060;-76
2022/09/24 19:45:24;;;;;;;11.68;7.85;;;14.80;99.90;;;;;;10456206;28;20372;-76
2022/09/24 19:50:31;;;;;;;12.60;8.30;;;14.80;99.90;;;;;;10453509;28;20430;-74
2022/09/24 19:55:35;;;;;;;14.98;11.15;;;14.70;99.90;;;;;;10455860;28;20139;-77
2022/09/24 20:00:39;;;;;;;18.10;12.77;;;14.40;99.90;;;;;;10443837;28;20668;-76
2022/09/24 20:05:42;;;;;;;16.13;12.15;;;14.30;99.90;;;;;;10451495;28;20516;-74
2022/09/24 20:10:44;;;;;;;12.05;9.98;;;14.30;99.90;;;;;;10440713;28;20076;-76
2022/09/24 20:15:57;;;;;;;13.50;9.93;;;14.40;99.90;;;;;;10451879;28;20051;-77
2022/09/24 20:21:03;;;;;;;12.35;9.90;;;14.50;99.90;;;;;;10456869;28;20128;-74
2022/09/24 20:31:27;;;;;;;10.60;8.68;;;14.30;99.90;;;;;;10452897;28;20061;-75
2022/09/24 20:36:30;;;;;;;11.43;7.95;;;14.50;99.90;;;;;;10450531;28;20185;-76
2022/09/24 20:41:32;;;;;;;10.13;7.68;;;14.50;99.90;;;;;;10415134;28;20075;-78
2022/09/24 20:46:35;;;;;;;11.07;7.22;;;14.60;99.90;;;;;;10427339;28;20780;-76
2022/09/24 20:51:37;;;;;;;10.60;6.55;;;14.50;99.90;;;;;;10447625;28;20414;-76
2022/09/24 20:56:41;;;;;;;37.08;24.48;;;14.50;99.90;;;;;;10441334;28;20099;-73
2022/09/24 21:01:44;;;;;;;18.77;12.75;;;14.60;99.90;;;;;;10449466;28;20566;-74
2022/09/24 21:06:46;;;;;;;8.43;6.38;;;14.50;99.90;;;;;;10412458;28;20061;-76
2022/09/24 21:11:49;;;;;;;11.32;6.50;;;14.40;99.90;;;;;;10414221;28;20049;-75
2022/09/24 21:16:53;;;;;;;9.85;7.00;;;14.40;99.90;;;;;;10413848;28;20128;-74
2022/09/24 21:21:55;;;;;;;10.38;6.85;;;14.40;99.90;;;;;;10390512;28;20060;-74
2022/09/24 21:26:59;;;;;;;14.02;6.78;;;14.40;99.90;;;;;;10416468;28;20505;-75
2022/09/24 21:32:02;;;;;;;11.57;6.65;;;14.20;99.90;;;;;;10449922;28;20604;-74
2022/09/24 21:37:04;;;;;;;8.25;5.53;;;14.00;99.90;;;;;;10444785;28;20065;-74
2022/09/24 21:42:07;;;;;;;7.88;6.20;;;13.90;99.90;;;;;;10450137;28;20044;-76
2022/09/24 21:47:10;;;;;;;9.25;6.05;;;13.90;99.90;;;;;;10443319;28;20038;-73
2022/09/24 21:52:12;;;;;;;8.25;6.05;;;14.00;99.90;;;;;;10429191;28;20057;-75
2022/09/24 21:57:14;;;;;;;10.52;6.10;;;13.90;99.90;;;;;;10434520;28;20486;-76
